createdAt,value
2023-08-10T00:01:07.092Z,5.40
2023-08-10T00:03:36.421Z,5.70
2023-08-10T00:06:04.267Z,5.60
2023-08-10T00:08:32.106Z,5.60
2023-08-10T00:10:59.910Z,5.80
2023-08-10T00:13:28.054Z,5.60
2023-08-10T00:15:56.221Z,5.10
2023-08-10T00:18:23.956Z,6.10
2023-08-10T00:20:52.162Z,6.10
2023-08-10T00:23:20.274Z,6.70
2023-08-10T00:25:49.056Z,6.50
2023-08-10T00:28:16.850Z,5.70
2023-08-10T00:30:44.773Z,5.80
2023-08-10T00:33:17.976Z,5.60
2023-08-10T00:35:52.295Z,6.40
2023-08-10T00:38:20.061Z,5.60
2023-08-10T00:40:48.138Z,5.40
2023-08-10T00:43:15.879Z,5.70
2023-08-10T00:45:43.837Z,5.40
2023-08-10T00:48:11.815Z,5.70
2023-08-10T00:50:39.896Z,5.60
2023-08-10T00:53:07.750Z,6.10
2023-08-10T00:55:35.916Z,5.70
2023-08-10T00:58:03.921Z,5.40
2023-08-10T01:00:31.788Z,5.80
2023-08-10T01:02:59.807Z,6.50
2023-08-10T01:05:34.483Z,5.90
2023-08-10T01:08:11.795Z,7.10
2023-08-10T01:11:21.013Z,6.10
2023-08-10T01:13:59.338Z,6.10
2023-08-10T01:16:29.377Z,5.60
2023-08-10T01:18:58.458Z,6.20
2023-08-10T01:22:02.949Z,7.00
2023-08-10T01:24:34.429Z,6.10
2023-08-10T01:29:31.409Z,6.30
2023-08-10T01:31:59.379Z,6.60
2023-08-10T01:34:27.329Z,6.30
2023-08-10T01:36:55.808Z,7.70
2023-08-10T01:39:23.618Z,5.90
2023-08-10T01:41:51.539Z,6.70
2023-08-10T01:44:19.510Z,7.00
2023-08-10T01:46:48.907Z,7.70
2023-08-10T01:49:20.564Z,6.10
2023-08-10T01:51:50.888Z,6.70
2023-08-10T01:54:21.523Z,7.00
2023-08-10T01:56:49.381Z,7.60
2023-08-10T01:59:17.247Z,6.50
2023-08-10T02:01:45.144Z,7.10
2023-08-10T02:04:13.204Z,7.00
2023-08-10T02:06:41.991Z,7.10
2023-08-10T02:09:10.150Z,7.20
2023-08-10T02:11:38.125Z,7.20
2023-08-10T02:14:06.286Z,6.40
2023-08-10T02:16:34.156Z,6.80
2023-08-10T02:19:02.039Z,6.70
2023-08-10T02:21:29.999Z,6.40
2023-08-10T02:23:57.874Z,6.50
2023-08-10T02:26:25.830Z,7.00
2023-08-10T02:28:53.628Z,6.90
2023-08-10T02:31:22.631Z,7.00
2023-08-10T02:33:50.553Z,6.90
2023-08-10T02:36:18.424Z,6.00
2023-08-10T02:38:46.221Z,7.00
2023-08-10T02:41:14.150Z,7.60
2023-08-10T02:43:42.362Z,7.00
2023-08-10T02:46:10.374Z,6.60
2023-08-10T02:48:38.467Z,6.70
2023-08-10T02:51:06.255Z,7.40
2023-08-10T02:53:34.198Z,6.60
2023-08-10T02:56:02.170Z,7.30
2023-08-10T02:58:30.232Z,7.00
2023-08-10T03:00:58.121Z,6.80
2023-08-10T03:03:27.400Z,6.80
2023-08-10T03:05:55.301Z,6.80
2023-08-10T03:08:23.231Z,6.80
2023-08-10T03:10:51.712Z,8.40
2023-08-10T03:13:19.682Z,9.70
2023-08-10T03:15:47.586Z,10.10
2023-08-10T03:18:15.516Z,23.40
2023-08-10T03:20:43.803Z,25.50
2023-08-10T03:23:11.660Z,16.10
2023-08-10T03:25:39.528Z,11.50
2023-08-10T03:28:07.505Z,11.10
2023-08-10T03:30:37.630Z,9.10
2023-08-10T03:33:05.779Z,7.80
2023-08-10T03:35:34.067Z,7.90
2023-08-10T03:38:01.970Z,7.60
2023-08-10T03:40:29.997Z,7.60
2023-08-10T03:42:57.893Z,7.30
2023-08-10T03:45:25.830Z,7.30
2023-08-10T03:47:53.679Z,8.50
2023-08-10T03:50:21.794Z,7.10
2023-08-10T03:52:49.766Z,7.40
2023-08-10T03:55:20.125Z,7.50
2023-08-10T03:57:48.026Z,7.60
2023-08-10T04:00:17.589Z,7.30
2023-08-10T04:02:45.829Z,7.60
2023-08-10T04:05:14.094Z,7.40
2023-08-10T04:07:42.049Z,6.50
2023-08-10T04:10:11.450Z,7.10
2023-08-10T04:12:40.013Z,7.90
2023-08-10T04:15:08.594Z,8.40
2023-08-10T04:17:37.804Z,7.90
2023-08-10T04:20:10.588Z,7.70
2023-08-10T04:22:38.729Z,7.10
2023-08-10T04:25:08.582Z,8.40
2023-08-10T04:27:36.848Z,8.60
2023-08-10T04:30:05.708Z,9.00
2023-08-10T04:32:33.849Z,8.70
2023-08-10T04:35:01.908Z,9.40
2023-08-10T04:37:29.795Z,9.30
2023-08-10T04:39:57.990Z,9.80
2023-08-10T04:42:25.802Z,10.40
2023-08-10T04:44:53.599Z,10.00
2023-08-10T04:47:21.445Z,10.70
2023-08-10T04:49:49.227Z,11.10
2023-08-10T04:52:16.995Z,9.50
2023-08-10T04:54:45.410Z,10.00
2023-08-10T04:57:13.176Z,11.30
2023-08-10T04:59:40.991Z,12.20
2023-08-10T05:02:09.926Z,12.80
2023-08-10T05:04:37.762Z,11.50
2023-08-10T05:07:05.793Z,11.10
2023-08-10T05:09:42.540Z,11.20
2023-08-10T05:12:21.305Z,12.30
2023-08-10T05:14:49.313Z,13.40
2023-08-10T05:17:17.296Z,12.30
2023-08-10T05:19:45.274Z,12.30
2023-08-10T05:22:13.081Z,12.90
2023-08-10T05:24:41.416Z,12.90
2023-08-10T05:27:09.227Z,13.50
2023-08-10T05:29:37.071Z,12.90
2023-08-10T05:32:05.159Z,13.50
2023-08-10T05:34:33.206Z,12.10
2023-08-10T05:37:01.007Z,12.00
2023-08-10T05:39:29.310Z,13.00
2023-08-10T05:41:57.152Z,12.10
2023-08-10T05:44:24.901Z,11.20
2023-08-10T05:46:52.939Z,12.40
2023-08-10T05:49:20.757Z,11.40
2023-08-10T05:51:48.613Z,11.20
2023-08-10T05:54:16.474Z,10.50
2023-08-10T05:56:44.307Z,10.40
2023-08-10T05:59:12.200Z,11.20
2023-08-10T06:01:44.515Z,11.10
2023-08-10T06:04:12.620Z,10.10
2023-08-10T06:06:40.430Z,10.90
2023-08-10T06:09:12.544Z,10.90
2023-08-10T06:11:48.177Z,9.90
2023-08-10T06:14:16.683Z,10.30
2023-08-10T06:16:44.665Z,10.40
2023-08-10T06:19:12.439Z,11.00
2023-08-10T06:21:40.256Z,9.60
2023-08-10T06:24:10.533Z,9.20
2023-08-10T06:26:38.492Z,8.40
2023-08-10T06:29:06.505Z,8.50
2023-08-10T06:31:34.567Z,9.60
2023-08-10T06:34:04.257Z,7.60
2023-08-10T06:36:32.413Z,8.40
2023-08-10T06:39:00.288Z,7.90
2023-08-10T06:41:28.853Z,8.50
2023-08-10T06:43:57.010Z,9.10
2023-08-10T06:46:24.869Z,8.30
2023-08-10T06:48:52.765Z,9.30
2023-08-10T06:51:20.631Z,8.10
2023-08-10T06:53:48.524Z,7.30
2023-08-10T06:56:17.284Z,7.90
2023-08-10T06:59:19.443Z,6.40
2023-08-10T07:01:32.878Z,6.10
2023-08-10T07:04:03.738Z,5.90
2023-08-10T07:06:32.865Z,6.60
2023-08-10T07:09:00.720Z,6.00
2023-08-10T07:11:28.599Z,6.40
2023-08-10T07:13:56.506Z,5.10
2023-08-10T07:16:24.912Z,5.10
2023-08-10T07:18:52.868Z,5.30
2023-08-10T07:21:21.667Z,5.40
2023-08-10T07:23:49.890Z,4.40
2023-08-10T07:26:17.827Z,5.00
2023-08-10T07:28:48.570Z,4.50
2023-08-10T07:31:16.938Z,5.10
2023-08-10T07:33:44.794Z,4.80
2023-08-10T07:36:13.350Z,5.20
2023-08-10T07:38:41.863Z,4.70
2023-08-10T07:41:09.766Z,4.60
2023-08-10T07:43:37.569Z,4.30
2023-08-10T07:46:05.461Z,3.50
2023-08-10T07:48:33.475Z,3.40
2023-08-10T07:51:02.415Z,3.10
2023-08-10T07:53:30.832Z,3.30
2023-08-10T07:56:01.207Z,3.20
2023-08-10T07:58:32.683Z,2.50
2023-08-10T08:01:15.686Z,2.60
2023-08-10T08:03:45.093Z,2.50
2023-08-10T08:06:15.722Z,3.20
2023-08-10T08:08:44.652Z,3.00
2023-08-10T08:11:30.633Z,2.50
2023-08-10T08:14:00.270Z,2.90
2023-08-10T08:16:30.793Z,2.60
2023-08-10T08:19:02.294Z,1.90
2023-08-10T08:21:32.757Z,2.50
2023-08-10T08:24:02.297Z,3.20
2023-08-10T08:26:31.792Z,2.20
2023-08-10T08:29:01.717Z,2.60
2023-08-10T08:31:29.781Z,2.80
2023-08-10T08:33:59.031Z,2.30
2023-08-10T08:36:27.192Z,1.70
2023-08-10T08:38:57.916Z,1.50
2023-08-10T08:41:36.893Z,1.80
2023-08-10T08:44:08.190Z,2.00
2023-08-10T08:46:45.124Z,1.90
2023-08-10T08:49:13.519Z,1.90
2023-08-10T08:51:51.299Z,1.40
2023-08-10T08:54:22.456Z,2.00
2023-08-10T08:57:04.697Z,1.90
2023-08-10T08:59:34.272Z,2.00
2023-08-10T09:02:16.312Z,1.40
2023-08-10T09:04:45.981Z,1.40
2023-08-10T09:07:14.156Z,1.80
2023-08-10T09:09:43.177Z,1.60
2023-08-10T09:12:34.377Z,2.20
2023-08-10T09:15:06.510Z,1.50
2023-08-10T09:17:37.920Z,1.40
2023-08-10T09:20:10.302Z,1.20
2023-08-10T09:22:40.128Z,1.60
2023-08-10T09:25:08.566Z,1.50
2023-08-10T09:30:08.873Z,1.50
2023-08-10T09:32:50.074Z,1.00
2023-08-10T09:35:20.514Z,1.30
2023-08-10T09:37:49.728Z,1.30
2023-08-10T09:40:18.617Z,1.30
2023-08-10T09:42:49.916Z,1.70
2023-08-10T09:45:19.418Z,1.70
2023-08-10T09:47:52.330Z,1.70
2023-08-10T09:50:25.816Z,1.30
2023-08-10T09:52:55.667Z,1.30
2023-08-10T09:55:24.114Z,1.40
2023-08-10T09:57:53.561Z,1.50
2023-08-10T10:00:24.563Z,1.30
2023-08-10T10:02:55.543Z,1.70
2023-08-10T10:08:01.625Z,2.00
2023-08-10T10:10:32.433Z,1.80
2023-08-10T10:13:02.314Z,1.50
2023-08-10T10:15:32.093Z,1.30
2023-08-10T10:18:00.309Z,1.50
2023-08-10T10:20:28.944Z,1.40
2023-08-10T10:22:56.928Z,1.20
2023-08-10T10:25:24.860Z,1.40
2023-08-10T10:27:55.849Z,1.40
2023-08-10T10:30:25.340Z,1.40
2023-08-10T10:32:54.093Z,1.20
2023-08-10T10:35:30.772Z,1.40
2023-08-10T10:37:59.985Z,1.30
2023-08-10T10:40:28.731Z,1.40
2023-08-10T10:43:07.107Z,1.60
2023-08-10T10:45:36.169Z,1.60
2023-08-10T10:48:07.099Z,1.40
2023-08-10T10:53:17.092Z,1.10
2023-08-10T10:55:46.711Z,1.30
2023-08-10T10:58:18.222Z,1.40
2023-08-10T11:00:49.638Z,1.50
2023-08-10T11:03:21.103Z,1.30
2023-08-10T11:05:49.404Z,1.30
2023-08-10T11:08:17.344Z,1.20
2023-08-10T11:10:45.882Z,1.10
2023-08-10T11:13:14.370Z,1.00
2023-08-10T11:15:47.653Z,1.50
2023-08-10T11:18:15.758Z,1.50
2023-08-10T11:20:49.064Z,1.30
2023-08-10T11:23:17.006Z,1.60
2023-08-10T11:25:50.668Z,1.40
2023-08-10T11:28:20.593Z,1.50
2023-08-10T11:30:49.724Z,1.90
2023-08-10T11:35:52.999Z,1.30
2023-08-10T11:38:21.707Z,1.80
2023-08-10T11:40:49.827Z,1.30
2023-08-10T11:43:21.624Z,1.20
2023-08-10T11:45:50.240Z,1.50
2023-08-10T11:48:20.846Z,1.40
2023-08-10T11:53:40.475Z,1.00
2023-08-10T11:56:10.250Z,1.20
2023-08-10T11:58:41.269Z,1.50
2023-08-10T12:01:10.780Z,1.00
2023-08-10T12:03:51.025Z,1.50
2023-08-10T12:06:20.005Z,1.30
2023-08-10T12:08:58.265Z,1.50
2023-08-10T12:11:27.814Z,1.30
2023-08-10T12:13:55.902Z,1.40
2023-08-10T12:16:24.440Z,1.50
2023-08-10T12:18:53.188Z,1.40
2023-08-10T12:21:21.327Z,1.40
2023-08-10T12:23:49.426Z,1.40
2023-08-10T12:26:18.104Z,1.30
2023-08-10T12:33:47.073Z,1.40
2023-08-10T12:36:15.121Z,1.40
2023-08-10T12:38:43.439Z,1.40
2023-08-10T12:41:12.909Z,1.20
2023-08-10T12:43:41.031Z,1.40
2023-08-10T12:46:09.227Z,1.20
2023-08-10T12:48:37.802Z,1.40
2023-08-10T12:51:09.210Z,1.60
2023-08-10T12:53:37.633Z,1.70
2023-08-10T12:56:05.913Z,1.40
2023-08-10T12:58:33.953Z,1.40
2023-08-10T13:01:02.129Z,1.60
2023-08-10T13:03:32.595Z,1.50
2023-08-10T13:06:00.825Z,1.40
2023-08-10T13:08:29.137Z,1.00
2023-08-10T13:10:57.014Z,1.50
2023-08-10T13:13:24.969Z,1.30
2023-08-10T13:15:52.952Z,1.20
2023-08-10T13:18:21.076Z,1.50
2023-08-10T13:20:49.086Z,1.30
2023-08-10T13:23:16.941Z,1.20
2023-08-10T13:25:44.903Z,1.60
2023-08-10T13:28:12.966Z,1.40
2023-08-10T13:30:41.584Z,1.40
2023-08-10T13:33:09.641Z,1.20
2023-08-10T13:35:37.879Z,1.50
2023-08-10T13:38:05.673Z,1.50
2023-08-10T13:40:33.715Z,1.60
2023-08-10T13:43:01.896Z,1.10
2023-08-10T13:45:29.997Z,1.50
2023-08-10T13:47:58.060Z,1.20
2023-08-10T13:52:56.656Z,1.50
2023-08-10T13:55:26.026Z,1.30
2023-08-10T13:57:54.103Z,1.70
2023-08-10T14:00:22.167Z,1.40
2023-08-10T14:02:50.367Z,1.00
2023-08-10T14:05:18.529Z,1.20
2023-08-10T14:07:46.687Z,1.50
2023-08-10T14:10:14.771Z,1.30
2023-08-10T14:12:43.301Z,1.50
2023-08-10T14:15:11.822Z,1.50
2023-08-10T14:17:39.804Z,1.20
2023-08-10T14:20:09.448Z,1.50
2023-08-10T14:22:37.919Z,1.20
2023-08-10T14:25:06.364Z,1.40
2023-08-10T14:27:34.344Z,1.10
2023-08-10T14:30:02.434Z,1.90
2023-08-10T14:32:30.820Z,1.20
2023-08-10T14:34:58.853Z,1.40
2023-08-10T14:37:27.526Z,1.30
2023-08-10T14:39:55.704Z,1.00
2023-08-10T14:42:23.766Z,1.20
2023-08-10T14:44:52.951Z,1.60
2023-08-10T14:47:21.428Z,1.40
2023-08-10T14:49:49.514Z,1.70
2023-08-10T14:52:17.494Z,0.90
2023-08-10T14:54:45.352Z,1.70
2023-08-10T14:57:13.331Z,1.60
2023-08-10T14:59:42.516Z,1.50
2023-08-10T15:02:10.676Z,1.50
2023-08-10T15:04:38.859Z,1.20
2023-08-10T15:07:06.966Z,1.40
2023-08-10T15:09:35.099Z,1.20
2023-08-10T15:12:03.833Z,1.60
2023-08-10T15:14:32.092Z,1.20
2023-08-10T15:17:00.025Z,1.20
2023-08-10T15:19:27.926Z,1.40
2023-08-10T15:21:55.969Z,1.20
2023-08-10T15:24:23.795Z,1.30
2023-08-10T15:26:51.699Z,1.60
2023-08-10T15:29:19.566Z,1.50
2023-08-10T15:31:47.440Z,1.60
2023-08-10T15:34:15.409Z,1.50
2023-08-10T15:36:43.193Z,1.30
2023-08-10T15:39:11.154Z,1.40
2023-08-10T15:41:39.204Z,1.30
2023-08-10T15:44:07.096Z,1.30
2023-08-10T15:46:35.265Z,1.40
2023-08-10T15:49:03.249Z,1.10
2023-08-10T15:51:31.042Z,1.30
2023-08-10T15:53:59.719Z,1.20
2023-08-10T15:56:28.493Z,1.20
2023-08-10T15:58:57.643Z,1.30
2023-08-10T16:01:26.442Z,1.20
2023-08-10T16:03:56.959Z,1.40
2023-08-10T16:06:39.996Z,1.10
2023-08-10T16:09:11.149Z,1.20
2023-08-10T16:11:42.258Z,1.20
2023-08-10T16:14:13.510Z,1.90
2023-08-10T16:16:42.398Z,1.80
2023-08-10T16:19:15.079Z,1.30
2023-08-10T16:21:44.077Z,1.20
2023-08-10T16:24:16.042Z,1.30
2023-08-10T16:26:45.850Z,1.80
2023-08-10T16:29:14.236Z,1.20
2023-08-10T16:34:13.247Z,1.30
2023-08-10T16:36:41.720Z,1.30
2023-08-10T16:39:12.654Z,1.20
2023-08-10T16:41:48.206Z,1.20
2023-08-10T16:44:20.886Z,1.40
2023-08-10T16:46:49.256Z,1.10
2023-08-10T16:49:17.246Z,1.60
2023-08-10T16:51:46.735Z,1.40
2023-08-10T16:54:17.673Z,2.10
2023-08-10T16:56:47.999Z,1.40
2023-08-10T16:59:16.679Z,1.40
2023-08-10T17:01:56.842Z,1.30
2023-08-10T17:04:25.720Z,1.30
2023-08-10T17:06:54.005Z,1.50
2023-08-10T17:09:22.523Z,1.80
2023-08-10T17:11:50.961Z,1.60
2023-08-10T17:14:19.230Z,1.70
2023-08-10T17:16:47.643Z,1.60
2023-08-10T17:19:16.294Z,1.60
2023-08-10T17:21:44.612Z,1.40
2023-08-10T17:24:13.397Z,1.80
2023-08-10T17:26:41.646Z,1.80
2023-08-10T17:29:19.592Z,1.60
2023-08-10T17:31:49.654Z,1.70
2023-08-10T17:34:18.333Z,2.10
2023-08-10T17:36:48.555Z,1.70
2023-08-10T17:39:17.237Z,1.60
2023-08-10T17:41:48.082Z,1.80
2023-08-10T17:44:16.862Z,2.20
2023-08-10T17:46:45.482Z,1.50
2023-08-10T17:49:14.275Z,2.30
2023-08-10T17:51:42.670Z,1.60
2023-08-10T17:54:11.457Z,2.00
2023-08-10T17:56:39.375Z,2.30
2023-08-10T17:59:07.254Z,2.00
2023-08-10T18:01:38.634Z,1.80
2023-08-10T18:04:06.958Z,1.90
2023-08-10T18:06:35.036Z,1.80
2023-08-10T18:09:03.207Z,2.60
2023-08-10T18:11:31.377Z,2.20
2023-08-10T18:14:01.853Z,2.20
2023-08-10T18:16:31.191Z,2.10
2023-08-10T18:18:59.107Z,2.40
2023-08-10T18:21:27.105Z,2.30
2023-08-10T18:23:56.649Z,1.90
2023-08-10T18:26:25.870Z,2.10
2023-08-10T18:28:53.956Z,1.90
2023-08-10T18:31:22.428Z,2.30
2023-08-10T18:33:50.564Z,2.50
2023-08-10T18:36:18.444Z,2.40
2023-08-10T18:38:46.595Z,2.10
2023-08-10T18:41:17.497Z,2.50
2023-08-10T18:43:45.555Z,2.60
2023-08-10T18:46:13.687Z,3.70
2023-08-10T18:48:41.611Z,3.40
2023-08-10T18:51:09.538Z,2.80
2023-08-10T18:53:37.403Z,3.20
2023-08-10T18:56:05.348Z,3.60
2023-08-10T18:58:33.171Z,12.60
2023-08-10T19:01:01.024Z,13.50
2023-08-10T19:03:29.173Z,4.70
2023-08-10T19:05:56.983Z,3.80
2023-08-10T19:08:24.979Z,3.40
2023-08-10T19:10:57.041Z,2.60
2023-08-10T19:13:26.317Z,3.20
2023-08-10T19:16:05.256Z,3.50
2023-08-10T19:18:35.318Z,3.20
2023-08-10T19:21:08.128Z,3.40
2023-08-10T19:23:36.408Z,4.10
2023-08-10T19:26:04.885Z,4.10
2023-08-10T19:28:36.063Z,6.00
2023-08-10T19:31:08.848Z,4.60
2023-08-10T19:33:38.329Z,3.90
2023-08-10T19:36:06.528Z,4.50
2023-08-10T19:38:34.447Z,3.90
2023-08-10T19:41:02.302Z,3.90
2023-08-10T19:43:30.291Z,4.10
2023-08-10T19:45:59.557Z,4.20
2023-08-10T19:48:27.727Z,4.00
2023-08-10T19:50:55.777Z,4.30
2023-08-10T19:53:23.757Z,4.30
2023-08-10T19:55:52.203Z,4.10
2023-08-10T19:58:22.167Z,4.20
2023-08-10T20:00:50.036Z,4.10
2023-08-10T20:03:17.997Z,4.30
2023-08-10T20:05:47.155Z,4.50
2023-08-10T20:08:16.736Z,4.20
2023-08-10T20:10:46.697Z,4.30
2023-08-10T20:13:17.535Z,4.00
2023-08-10T20:15:46.673Z,4.70
2023-08-10T20:18:14.925Z,4.10
2023-08-10T20:20:46.070Z,5.90
2023-08-10T20:23:15.324Z,8.20
2023-08-10T20:25:43.918Z,6.00
2023-08-10T20:28:21.540Z,4.50
2023-08-10T20:30:51.004Z,4.70
2023-08-10T20:33:23.198Z,4.00
2023-08-10T20:35:54.106Z,3.80
2023-08-10T20:38:22.588Z,4.60
2023-08-10T20:40:53.117Z,4.10
2023-08-10T20:43:23.891Z,4.60
2023-08-10T20:45:54.305Z,4.10
2023-08-10T20:48:23.480Z,4.40
2023-08-10T20:50:54.926Z,4.30
2023-08-10T20:53:25.583Z,4.10
2023-08-10T20:58:26.500Z,3.60
2023-08-10T21:00:56.455Z,3.80
2023-08-10T21:03:27.029Z,4.30
2023-08-10T21:05:57.574Z,4.70
2023-08-10T21:08:41.847Z,5.30
2023-08-10T21:11:10.415Z,6.70
2023-08-10T21:13:40.933Z,5.40
2023-08-10T21:16:11.609Z,5.00
2023-08-10T21:18:45.314Z,4.60
2023-08-10T21:21:22.147Z,4.10
2023-08-10T21:23:55.142Z,4.30
2023-08-10T21:26:26.808Z,3.90
2023-08-10T21:28:56.034Z,4.00
2023-08-10T21:31:24.256Z,3.80
2023-08-10T21:33:54.498Z,3.80
2023-08-10T21:36:23.070Z,4.00
2023-08-10T21:38:55.170Z,4.00
2023-08-10T21:41:24.533Z,4.10
2023-08-10T21:43:55.165Z,4.50
2023-08-10T21:46:23.687Z,4.30
2023-08-10T21:48:52.024Z,4.30
2023-08-10T21:51:20.821Z,4.80
2023-08-10T21:53:49.085Z,4.00
2023-08-10T21:56:28.733Z,5.70
2023-08-10T21:59:00.994Z,4.20
2023-08-10T22:01:29.679Z,4.10
2023-08-10T22:03:58.059Z,4.60
2023-08-10T22:06:28.383Z,4.50
2023-08-10T22:08:56.558Z,4.30
2023-08-10T22:11:27.288Z,4.30
2023-08-10T22:13:55.713Z,4.50
2023-08-10T22:16:24.407Z,5.10
2023-08-10T22:18:54.714Z,5.90
2023-08-10T22:23:52.254Z,6.10
2023-08-10T22:26:20.632Z,5.20
2023-08-10T22:28:49.820Z,4.80
2023-08-10T22:31:18.013Z,5.00
2023-08-10T22:33:47.024Z,4.60
2023-08-10T22:36:18.260Z,4.60
2023-08-10T22:38:46.952Z,5.20
2023-08-10T22:41:19.844Z,4.80
2023-08-10T22:43:48.070Z,4.60
2023-08-10T22:46:16.466Z,4.60
2023-08-10T22:48:44.520Z,5.20
2023-08-10T22:51:12.498Z,4.60
2023-08-10T22:53:40.507Z,4.10
2023-08-10T22:56:08.421Z,4.50
2023-08-10T22:58:36.394Z,4.90
2023-08-10T23:01:05.597Z,4.90
2023-08-10T23:03:46.872Z,4.50
2023-08-10T23:06:15.041Z,5.30
2023-08-10T23:08:43.213Z,5.10
2023-08-10T23:11:11.180Z,5.20
2023-08-10T23:13:39.044Z,4.20
2023-08-10T23:16:08.715Z,4.90
2023-08-10T23:18:36.721Z,4.70
2023-08-10T23:21:04.915Z,4.50
2023-08-10T23:23:33.189Z,4.30
2023-08-10T23:26:01.089Z,3.60
2023-08-10T23:28:29.027Z,5.20
2023-08-10T23:30:57.094Z,4.90
2023-08-10T23:33:25.066Z,5.10
2023-08-10T23:35:53.661Z,4.10
2023-08-10T23:38:21.623Z,4.60
2023-08-10T23:40:49.579Z,4.20
2023-08-10T23:43:19.090Z,4.60
2023-08-10T23:45:47.567Z,4.40
2023-08-10T23:48:16.358Z,4.30
2023-08-10T23:50:44.317Z,4.90
2023-08-10T23:53:12.186Z,5.20
2023-08-10T23:55:40.868Z,5.10
2023-08-10T23:58:08.836Z,4.90
